LFTW/FNI METAR and TAF weather

Enter ICAO airport designator
Station Type Date Time Source
LFTW METAR 2022/12/03 16:30 UTC NOAA

LFTW 031630Z AUTO 04006KT 010V070 6000 -RA FEW005/// SCT009/// BKN029/// ///TCU 07/07 Q1006 BECMG SCT020 BKN030


Station Type Date Time Source
LFTW Decoded METAR 2022/12/03 16:30 UTC NOAA

Nimes / Garons, France (LFTW) 43-45N 004-25E 96M
Dec 03, 2022 - 11:30 AM EST / 2022.12.03 1630 UTC
Wind: from the NE (040 degrees) at 7 MPH (6 KT) (direction variable):0
Visibility: 3 mile(s):0
Sky conditions: mostly cloudy
Weather: light rain; Towering cumulus clouds observed
Temperature: 44 F (7 C)
Dew Point: 44 F (7 C)
Relative Humidity: 100%
Pressure (altimeter): 29.71 in. Hg (1006 hPa)
ob: LFTW 031630Z AUTO 04006KT 010V070 6000 -RA FEW005/// SCT009/// BKN029/// ///TCU 07/07 Q1006 BECMG SCT020 BKN030
cycle: 16

Station Type Date Time Source
LFTW TAF 2022/12/03 16:26 UTC NOAA

TAF
AMD LFTW 031618Z 0316/0415 02010KT 9999 SCT020 BKN030
TEMPO 0316/0318 4000 RA SCT020TCU
TEMPO 0400/0403 1000 SHRA SCT020TCU
BECMG 0404/0406 4000 RA
BECMG 0408/0410 12010KT 9999 NSW
TEMPO 0409/0415 1500 TSRA SCT025CB
BECMG 0412/0414 18014KT

Example: see airport list